sensor_id;sensor_type;location;lat;lon;timestamp;temperature;humidity
28863;DHT22;15994;51.796;13.006;2023-02-01T00:00:27;5.30;99.90
28863;DHT22;15994;51.796;13.006;2023-02-01T00:02:54;5.30;99.90
28863;DHT22;15994;51.796;13.006;2023-02-01T00:05:20;5.30;99.90
28863;DHT22;15994;51.796;13.006;2023-02-01T00:07:48;5.30;99.90
28863;DHT22;15994;51.796;13.006;2023-02-01T00:10:14;5.30;99.90
28863;DHT22;15994;51.796;13.006;2023-02-01T00:12:41;5.30;99.90
28863;DHT22;15994;51.796;13.006;2023-02-01T00:15:08;5.30;99.90
28863;DHT22;15994;51.796;13.006;2023-02-01T00:17:34;5.30;99.90
28863;DHT22;15994;51.796;13.006;2023-02-01T00:20:01;5.20;99.90
28863;DHT22;15994;51.796;13.006;2023-02-01T00:22:28;5.20;99.90
28863;DHT22;15994;51.796;13.006;2023-02-01T00:24:54;5.10;99.90
28863;DHT22;15994;51.796;13.006;2023-02-01T00:27:21;5.10;99.90
28863;DHT22;15994;51.796;13.006;2023-02-01T00:29:47;5.10;99.90
28863;DHT22;15994;51.796;13.006;2023-02-01T00:32:14;5.00;99.90
28863;DHT22;15994;51.796;13.006;2023-02-01T00:34:41;5.00;99.90
28863;DHT22;15994;51.796;13.006;2023-02-01T00:37:07;5.00;99.90
28863;DHT22;15994;51.796;13.006;2023-02-01T00:39:34;5.00;99.90
28863;DHT22;15994;51.796;13.006;2023-02-01T00:42:01;5.00;99.90
28863;DHT22;15994;51.796;13.006;2023-02-01T00:44:28;4.90;99.90
28863;DHT22;15994;51.796;13.006;2023-02-01T00:46:58;4.80;99.90
28863;DHT22;15994;51.796;13.006;2023-02-01T00:49:25;4.70;99.90
28863;DHT22;15994;51.796;13.006;2023-02-01T00:51:51;4.70;99.90
28863;DHT22;15994;51.796;13.006;2023-02-01T00:54:18;4.70;99.90
28863;DHT22;15994;51.796;13.006;2023-02-01T00:56:44;4.70;99.90
28863;DHT22;15994;51.796;13.006;2023-02-01T00:59:11;4.70;99.90
28863;DHT22;15994;51.796;13.006;2023-02-01T01:01:38;4.70;99.90
28863;DHT22;15994;51.796;13.006;2023-02-01T01:04:04;4.70;99.90
28863;DHT22;15994;51.796;13.006;2023-02-01T01:06:32;4.70;99.90
28863;DHT22;15994;51.796;13.006;2023-02-01T01:09:01;4.70;99.90
28863;DHT22;15994;51.796;13.006;2023-02-01T01:11:31;4.70;99.90
28863;DHT22;15994;51.796;13.006;2023-02-01T01:13:59;4.70;99.90
28863;DHT22;15994;51.796;13.006;2023-02-01T01:16:27;4.70;99.90
28863;DHT22;15994;51.796;13.006;2023-02-01T01:18:55;4.80;99.90
28863;DHT22;15994;51.796;13.006;2023-02-01T01:21:21;4.80;99.90
28863;DHT22;15994;51.796;13.006;2023-02-01T01:23:48;4.80;99.90
28863;DHT22;15994;51.796;13.006;2023-02-01T01:26:26;4.80;99.90
28863;DHT22;15994;51.796;13.006;2023-02-01T01:28:54;4.90;99.90
28863;DHT22;15994;51.796;13.006;2023-02-01T01:31:20;4.90;99.90
28863;DHT22;15994;51.796;13.006;2023-02-01T01:33:49;4.90;99.90
28863;DHT22;15994;51.796;13.006;2023-02-01T01:36:16;4.90;99.90
28863;DHT22;15994;51.796;13.006;2023-02-01T01:38:43;4.80;99.90
28863;DHT22;15994;51.796;13.006;2023-02-01T01:41:17;4.80;99.90
28863;DHT22;15994;51.796;13.006;2023-02-01T01:43:57;4.80;99.90
28863;DHT22;15994;51.796;13.006;2023-02-01T01:46:26;4.80;99.90
28863;DHT22;15994;51.796;13.006;2023-02-01T01:49:08;4.80;99.90
28863;DHT22;15994;51.796;13.006;2023-02-01T01:51:38;4.80;99.90
28863;DHT22;15994;51.796;13.006;2023-02-01T01:54:23;4.80;99.90
28863;DHT22;15994;51.796;13.006;2023-02-01T01:56:57;4.80;99.90
28863;DHT22;15994;51.796;13.006;2023-02-01T01:59:27;4.80;99.90
28863;DHT22;15994;51.796;13.006;2023-02-01T02:01:55;4.80;99.90
28863;DHT22;15994;51.796;13.006;2023-02-01T02:04:22;4.70;99.90
28863;DHT22;15994;51.796;13.006;2023-02-01T02:07:09;4.80;99.90
28863;DHT22;15994;51.796;13.006;2023-02-01T02:09:37;4.70;99.90
28863;DHT22;15994;51.796;13.006;2023-02-01T02:12:04;4.70;99.90
28863;DHT22;15994;51.796;13.006;2023-02-01T02:14:31;4.80;99.90
28863;DHT22;15994;51.796;13.006;2023-02-01T02:25:46;4.70;99.90
28863;DHT22;15994;51.796;13.006;2023-02-01T02:28:36;4.80;99.90
28863;DHT22;15994;51.796;13.006;2023-02-01T02:34:07;4.90;99.90
28863;DHT22;15994;51.796;13.006;2023-02-01T02:37:00;5.00;99.90
28863;DHT22;15994;51.796;13.006;2023-02-01T02:39:41;5.00;99.90
28863;DHT22;15994;51.796;13.006;2023-02-01T02:45:11;5.10;99.90
28863;DHT22;15994;51.796;13.006;2023-02-01T02:48:28;5.10;99.90
28863;DHT22;15994;51.796;13.006;2023-02-01T02:51:27;5.10;99.90
28863;DHT22;15994;51.796;13.006;2023-02-01T02:54:20;5.20;99.90
28863;DHT22;15994;51.796;13.006;2023-02-01T02:57:13;5.20;99.90
28863;DHT22;15994;51.796;13.006;2023-02-01T03:00:01;5.20;99.90
28863;DHT22;15994;51.796;13.006;2023-02-01T03:02:47;5.20;99.90
28863;DHT22;15994;51.796;13.006;2023-02-01T03:05:36;5.20;99.90
28863;DHT22;15994;51.796;13.006;2023-02-01T03:16:07;5.30;99.90
28863;DHT22;15994;51.796;13.006;2023-02-01T03:19:25;5.30;99.90
28863;DHT22;15994;51.796;13.006;2023-02-01T03:21:30;5.30;99.90
28863;DHT22;15994;51.796;13.006;2023-02-01T03:24:03;5.30;99.90
28863;DHT22;15994;51.796;13.006;2023-02-01T03:26:34;5.30;99.90
28863;DHT22;15994;51.796;13.006;2023-02-01T03:29:12;5.40;99.90
28863;DHT22;15994;51.796;13.006;2023-02-01T03:31:40;5.40;99.90
28863;DHT22;15994;51.796;13.006;2023-02-01T03:34:07;5.40;99.90
28863;DHT22;15994;51.796;13.006;2023-02-01T03:36:39;5.40;99.90
28863;DHT22;15994;51.796;13.006;2023-02-01T03:39:38;5.40;99.90
28863;DHT22;15994;51.796;13.006;2023-02-01T03:42:17;5.40;99.90
28863;DHT22;15994;51.796;13.006;2023-02-01T03:45:00;5.30;99.90
28863;DHT22;15994;51.796;13.006;2023-02-01T03:47:35;5.30;99.90
28863;DHT22;15994;51.796;13.006;2023-02-01T03:50:11;5.30;99.90
28863;DHT22;15994;51.796;13.006;2023-02-01T03:55:13;5.20;99.90
28863;DHT22;15994;51.796;13.006;2023-02-01T03:57:52;5.20;99.90
28863;DHT22;15994;51.796;13.006;2023-02-01T04:00:23;5.20;99.90
28863;DHT22;15994;51.796;13.006;2023-02-01T04:02:50;5.20;99.90
28863;DHT22;15994;51.796;13.006;2023-02-01T04:05:17;5.20;99.90
28863;DHT22;15994;51.796;13.006;2023-02-01T04:07:43;5.20;99.90
28863;DHT22;15994;51.796;13.006;2023-02-01T04:10:11;5.20;99.90
28863;DHT22;15994;51.796;13.006;2023-02-01T04:12:38;5.30;99.90
28863;DHT22;15994;51.796;13.006;2023-02-01T04:15:05;5.30;99.90
28863;DHT22;15994;51.796;13.006;2023-02-01T04:17:32;5.30;99.90
28863;DHT22;15994;51.796;13.006;2023-02-01T04:19:59;5.30;99.90
28863;DHT22;15994;51.796;13.006;2023-02-01T04:22:25;5.30;99.90
28863;DHT22;15994;51.796;13.006;2023-02-01T04:24:52;5.30;99.90
28863;DHT22;15994;51.796;13.006;2023-02-01T04:27:18;5.30;99.90
28863;DHT22;15994;51.796;13.006;2023-02-01T04:29:45;5.30;99.90
28863;DHT22;15994;51.796;13.006;2023-02-01T04:32:11;5.30;99.90
28863;DHT22;15994;51.796;13.006;2023-02-01T04:34:38;5.30;99.90
28863;DHT22;15994;51.796;13.006;2023-02-01T04:37:04;5.30;99.90
28863;DHT22;15994;51.796;13.006;2023-02-01T04:39:31;5.30;99.90
28863;DHT22;15994;51.796;13.006;2023-02-01T04:41:57;5.30;99.90
28863;DHT22;15994;51.796;13.006;2023-02-01T04:44:24;5.30;99.90
28863;DHT22;15994;51.796;13.006;2023-02-01T04:46:50;5.30;99.90
28863;DHT22;15994;51.796;13.006;2023-02-01T04:49:17;5.30;99.90
28863;DHT22;15994;51.796;13.006;2023-02-01T04:51:43;5.30;99.90
28863;DHT22;15994;51.796;13.006;2023-02-01T04:54:10;5.40;99.90
28863;DHT22;15994;51.796;13.006;2023-02-01T04:56:37;5.40;99.90
28863;DHT22;15994;51.796;13.006;2023-02-01T04:59:04;5.40;99.90
28863;DHT22;15994;51.796;13.006;2023-02-01T05:01:31;5.40;99.90
28863;DHT22;15994;51.796;13.006;2023-02-01T05:03:57;5.40;99.90
28863;DHT22;15994;51.796;13.006;2023-02-01T05:06:24;5.30;99.90
28863;DHT22;15994;51.796;13.006;2023-02-01T05:08:50;5.40;99.90
28863;DHT22;15994;51.796;13.006;2023-02-01T05:11:17;5.40;99.90
28863;DHT22;15994;51.796;13.006;2023-02-01T05:13:58;5.40;99.90
28863;DHT22;15994;51.796;13.006;2023-02-01T05:16:25;5.40;99.90
28863;DHT22;15994;51.796;13.006;2023-02-01T05:18:53;5.40;99.90
28863;DHT22;15994;51.796;13.006;2023-02-01T05:21:20;5.40;99.90
28863;DHT22;15994;51.796;13.006;2023-02-01T05:23:46;5.30;99.90
28863;DHT22;15994;51.796;13.006;2023-02-01T05:26:30;5.30;99.90
28863;DHT22;15994;51.796;13.006;2023-02-01T05:28:57;5.30;99.90
28863;DHT22;15994;51.796;13.006;2023-02-01T05:31:24;5.30;99.90
28863;DHT22;15994;51.796;13.006;2023-02-01T05:33:51;5.30;99.90
28863;DHT22;15994;51.796;13.006;2023-02-01T05:36:17;5.30;99.90
28863;DHT22;15994;51.796;13.006;2023-02-01T05:38:44;5.30;99.90
28863;DHT22;15994;51.796;13.006;2023-02-01T05:41:10;5.30;99.90
28863;DHT22;15994;51.796;13.006;2023-02-01T05:43:37;5.30;99.90
28863;DHT22;15994;51.796;13.006;2023-02-01T05:46:03;5.30;99.90
28863;DHT22;15994;51.796;13.006;2023-02-01T05:48:30;5.40;99.90
28863;DHT22;15994;51.796;13.006;2023-02-01T05:50:56;5.40;99.90
28863;DHT22;15994;51.796;13.006;2023-02-01T05:53:23;5.40;99.90
28863;DHT22;15994;51.796;13.006;2023-02-01T05:55:49;5.40;99.90
28863;DHT22;15994;51.796;13.006;2023-02-01T05:58:16;5.30;99.90
28863;DHT22;15994;51.796;13.006;2023-02-01T06:00:42;5.40;99.90
28863;DHT22;15994;51.796;13.006;2023-02-01T06:03:09;5.30;99.90
28863;DHT22;15994;51.796;13.006;2023-02-01T06:05:35;5.30;99.90
28863;DHT22;15994;51.796;13.006;2023-02-01T06:08:03;5.30;99.90
28863;DHT22;15994;51.796;13.006;2023-02-01T06:10:29;5.30;99.90
28863;DHT22;15994;51.796;13.006;2023-02-01T06:12:56;5.30;99.90
28863;DHT22;15994;51.796;13.006;2023-02-01T06:15:22;5.20;99.90
28863;DHT22;15994;51.796;13.006;2023-02-01T06:17:49;5.30;99.90
28863;DHT22;15994;51.796;13.006;2023-02-01T06:20:16;5.30;99.90
28863;DHT22;15994;51.796;13.006;2023-02-01T06:22:42;5.20;99.90
28863;DHT22;15994;51.796;13.006;2023-02-01T06:25:10;5.20;99.90
28863;DHT22;15994;51.796;13.006;2023-02-01T06:27:37;5.20;99.90
28863;DHT22;15994;51.796;13.006;2023-02-01T06:30:05;5.30;99.90
28863;DHT22;15994;51.796;13.006;2023-02-01T06:32:32;5.30;99.90
28863;DHT22;15994;51.796;13.006;2023-02-01T06:34:59;5.30;99.90
28863;DHT22;15994;51.796;13.006;2023-02-01T06:37:26;5.30;99.90
28863;DHT22;15994;51.796;13.006;2023-02-01T06:39:54;5.30;99.90
28863;DHT22;15994;51.796;13.006;2023-02-01T06:42:21;5.30;99.90
28863;DHT22;15994;51.796;13.006;2023-02-01T06:44:48;5.20;99.90
28863;DHT22;15994;51.796;13.006;2023-02-01T06:47:14;5.20;99.90
28863;DHT22;15994;51.796;13.006;2023-02-01T06:49:41;5.20;99.90
28863;DHT22;15994;51.796;13.006;2023-02-01T06:52:07;5.10;99.90
28863;DHT22;15994;51.796;13.006;2023-02-01T06:54:34;5.10;99.90
28863;DHT22;15994;51.796;13.006;2023-02-01T06:57:02;5.10;99.90
28863;DHT22;15994;51.796;13.006;2023-02-01T06:59:29;5.10;99.90
28863;DHT22;15994;51.796;13.006;2023-02-01T07:01:56;5.10;99.90
28863;DHT22;15994;51.796;13.006;2023-02-01T07:04:22;5.10;99.90
28863;DHT22;15994;51.796;13.006;2023-02-01T07:06:49;5.10;99.90
28863;DHT22;15994;51.796;13.006;2023-02-01T07:09:15;5.10;99.90
28863;DHT22;15994;51.796;13.006;2023-02-01T07:11:42;5.20;99.90
28863;DHT22;15994;51.796;13.006;2023-02-01T07:14:10;5.10;99.90
28863;DHT22;15994;51.796;13.006;2023-02-01T07:16:37;5.00;99.90
28863;DHT22;15994;51.796;13.006;2023-02-01T07:19:03;5.00;99.90
28863;DHT22;15994;51.796;13.006;2023-02-01T07:21:30;5.00;99.90
28863;DHT22;15994;51.796;13.006;2023-02-01T07:23:58;5.00;99.90
28863;DHT22;15994;51.796;13.006;2023-02-01T07:26:25;5.10;99.90
28863;DHT22;15994;51.796;13.006;2023-02-01T07:28:51;5.10;99.90
28863;DHT22;15994;51.796;13.006;2023-02-01T07:31:19;5.10;99.90
28863;DHT22;15994;51.796;13.006;2023-02-01T07:33:48;5.20;99.90
28863;DHT22;15994;51.796;13.006;2023-02-01T07:36:17;5.20;99.90
28863;DHT22;15994;51.796;13.006;2023-02-01T07:38:44;5.20;99.90
28863;DHT22;15994;51.796;13.006;2023-02-01T07:41:12;5.30;99.90
28863;DHT22;15994;51.796;13.006;2023-02-01T07:43:38;5.30;99.90
28863;DHT22;15994;51.796;13.006;2023-02-01T07:46:05;5.30;99.90
28863;DHT22;15994;51.796;13.006;2023-02-01T07:48:32;5.20;99.90
28863;DHT22;15994;51.796;13.006;2023-02-01T07:51:02;5.10;99.90
28863;DHT22;15994;51.796;13.006;2023-02-01T07:53:30;5.20;99.90
28863;DHT22;15994;51.796;13.006;2023-02-01T07:55:57;5.10;99.90
28863;DHT22;15994;51.796;13.006;2023-02-01T07:58:25;5.10;99.90
28863;DHT22;15994;51.796;13.006;2023-02-01T08:00:52;5.10;99.90
28863;DHT22;15994;51.796;13.006;2023-02-01T08:03:36;5.10;99.90
28863;DHT22;15994;51.796;13.006;2023-02-01T08:06:03;5.10;99.90
28863;DHT22;15994;51.796;13.006;2023-02-01T08:08:30;5.20;99.90
28863;DHT22;15994;51.796;13.006;2023-02-01T08:11:01;5.20;99.90
28863;DHT22;15994;51.796;13.006;2023-02-01T08:13:28;5.10;99.90
28863;DHT22;15994;51.796;13.006;2023-02-01T08:16:03;5.20;99.90
28863;DHT22;15994;51.796;13.006;2023-02-01T08:18:30;5.20;99.90
28863;DHT22;15994;51.796;13.006;2023-02-01T08:20:56;5.20;99.90
28863;DHT22;15994;51.796;13.006;2023-02-01T08:23:23;5.20;99.90
28863;DHT22;15994;51.796;13.006;2023-02-01T08:25:49;5.20;99.90
28863;DHT22;15994;51.796;13.006;2023-02-01T08:28:16;5.20;99.90
28863;DHT22;15994;51.796;13.006;2023-02-01T08:30:42;5.30;99.90
28863;DHT22;15994;51.796;13.006;2023-02-01T08:33:09;5.20;99.90
28863;DHT22;15994;51.796;13.006;2023-02-01T08:35:36;5.30;99.90
28863;DHT22;15994;51.796;13.006;2023-02-01T08:38:03;5.30;99.90
28863;DHT22;15994;51.796;13.006;2023-02-01T08:40:30;5.30;99.90
28863;DHT22;15994;51.796;13.006;2023-02-01T08:42:57;5.20;99.90
28863;DHT22;15994;51.796;13.006;2023-02-01T08:45:27;5.20;99.90
28863;DHT22;15994;51.796;13.006;2023-02-01T08:47:55;5.20;99.90
28863;DHT22;15994;51.796;13.006;2023-02-01T08:50:23;5.10;99.90
28863;DHT22;15994;51.796;13.006;2023-02-01T08:52:50;5.10;99.90
28863;DHT22;15994;51.796;13.006;2023-02-01T08:55:17;5.10;99.90
28863;DHT22;15994;51.796;13.006;2023-02-01T08:57:44;5.00;99.90
28863;DHT22;15994;51.796;13.006;2023-02-01T09:00:15;5.00;99.90
28863;DHT22;15994;51.796;13.006;2023-02-01T09:02:42;4.90;99.90
28863;DHT22;15994;51.796;13.006;2023-02-01T09:05:09;4.80;99.90
28863;DHT22;15994;51.796;13.006;2023-02-01T09:07:36;4.80;99.90
28863;DHT22;15994;51.796;13.006;2023-02-01T09:10:03;4.80;99.90
28863;DHT22;15994;51.796;13.006;2023-02-01T09:12:32;4.80;99.90
28863;DHT22;15994;51.796;13.006;2023-02-01T09:14:59;4.80;99.90
28863;DHT22;15994;51.796;13.006;2023-02-01T09:17:26;4.80;99.90
28863;DHT22;15994;51.796;13.006;2023-02-01T09:19:53;4.90;99.90
28863;DHT22;15994;51.796;13.006;2023-02-01T09:22:20;4.90;99.90
28863;DHT22;15994;51.796;13.006;2023-02-01T09:24:47;5.00;99.90
28863;DHT22;15994;51.796;13.006;2023-02-01T09:27:13;4.90;99.90
28863;DHT22;15994;51.796;13.006;2023-02-01T09:29:40;5.00;99.90
28863;DHT22;15994;51.796;13.006;2023-02-01T09:32:06;5.10;99.90
28863;DHT22;15994;51.796;13.006;2023-02-01T09:34:33;5.10;99.90
28863;DHT22;15994;51.796;13.006;2023-02-01T09:37:00;5.00;99.90
28863;DHT22;15994;51.796;13.006;2023-02-01T09:39:27;4.90;99.90
28863;DHT22;15994;51.796;13.006;2023-02-01T09:48:14;4.90;99.90
28863;DHT22;15994;51.796;13.006;2023-02-01T09:50:47;4.90;99.90
28863;DHT22;15994;51.796;13.006;2023-02-01T09:53:22;5.00;99.90
28863;DHT22;15994;51.796;13.006;2023-02-01T09:55:51;5.00;99.90
28863;DHT22;15994;51.796;13.006;2023-02-01T09:58:42;5.00;99.90
28863;DHT22;15994;51.796;13.006;2023-02-01T10:01:20;5.10;99.90
28863;DHT22;15994;51.796;13.006;2023-02-01T10:03:48;5.20;99.90
28863;DHT22;15994;51.796;13.006;2023-02-01T10:06:21;5.30;99.90
28863;DHT22;15994;51.796;13.006;2023-02-01T10:11:39;5.40;99.90
28863;DHT22;15994;51.796;13.006;2023-02-01T10:22:44;5.80;99.90
28863;DHT22;15994;51.796;13.006;2023-02-01T10:27:38;5.80;99.90
28863;DHT22;15994;51.796;13.006;2023-02-01T10:30:30;5.80;99.90
28863;DHT22;15994;51.796;13.006;2023-02-01T10:33:17;5.70;99.90
28863;DHT22;15994;51.796;13.006;2023-02-01T10:35:45;5.70;99.90
28863;DHT22;15994;51.796;13.006;2023-02-01T10:38:38;5.70;99.90
28863;DHT22;15994;51.796;13.006;2023-02-01T10:41:13;5.70;99.90
28863;DHT22;15994;51.796;13.006;2023-02-01T10:43:41;5.80;99.90
28863;DHT22;15994;51.796;13.006;2023-02-01T10:46:08;5.90;99.90
28863;DHT22;15994;51.796;13.006;2023-02-01T10:48:35;6.00;99.90
28863;DHT22;15994;51.796;13.006;2023-02-01T10:51:21;6.00;99.90
28863;DHT22;15994;51.796;13.006;2023-02-01T10:53:58;6.00;99.90
28863;DHT22;15994;51.796;13.006;2023-02-01T10:56:27;6.10;99.90
28863;DHT22;15994;51.796;13.006;2023-02-01T10:59:05;6.40;99.90
28863;DHT22;15994;51.796;13.006;2023-02-01T11:01:40;6.50;99.90
28863;DHT22;15994;51.796;13.006;2023-02-01T11:04:18;6.20;99.90
28863;DHT22;15994;51.796;13.006;2023-02-01T11:06:53;6.20;99.90
28863;DHT22;15994;51.796;13.006;2023-02-01T11:09:31;6.30;99.90
28863;DHT22;15994;51.796;13.006;2023-02-01T11:11:59;6.30;99.90
28863;DHT22;15994;51.796;13.006;2023-02-01T11:14:32;6.40;99.90
28863;DHT22;15994;51.796;13.006;2023-02-01T11:17:12;6.50;99.90
28863;DHT22;15994;51.796;13.006;2023-02-01T11:20:11;6.50;99.90
28863;DHT22;15994;51.796;13.006;2023-02-01T11:22:49;6.50;99.90
28863;DHT22;15994;51.796;13.006;2023-02-01T11:25:19;6.50;99.90
28863;DHT22;15994;51.796;13.006;2023-02-01T11:27:46;6.50;99.90
28863;DHT22;15994;51.796;13.006;2023-02-01T11:32:53;6.60;99.90
28863;DHT22;15994;51.796;13.006;2023-02-01T11:35:20;6.50;99.90
28863;DHT22;15994;51.796;13.006;2023-02-01T11:37:54;6.30;99.90
28863;DHT22;15994;51.796;13.006;2023-02-01T11:40:33;6.20;99.90
28863;DHT22;15994;51.796;13.006;2023-02-01T11:43:08;6.00;99.90
28863;DHT22;15994;51.796;13.006;2023-02-01T11:45:36;5.50;99.90
28863;DHT22;15994;51.796;13.006;2023-02-01T11:48:08;5.30;99.90
28863;DHT22;15994;51.796;13.006;2023-02-01T11:50:57;5.10;99.90
28863;DHT22;15994;51.796;13.006;2023-02-01T11:56:37;5.00;99.90
28863;DHT22;15994;51.796;13.006;2023-02-01T12:02:15;5.10;99.90
28863;DHT22;15994;51.796;13.006;2023-02-01T12:05:24;5.20;99.90
28863;DHT22;15994;51.796;13.006;2023-02-01T12:08:22;5.40;99.90
28863;DHT22;15994;51.796;13.006;2023-02-01T12:17:34;5.50;99.90
28863;DHT22;15994;51.796;13.006;2023-02-01T12:25:38;5.50;99.90
28863;DHT22;15994;51.796;13.006;2023-02-01T12:31:07;5.50;99.90
28863;DHT22;15994;51.796;13.006;2023-02-01T12:34:11;5.40;99.90
28863;DHT22;15994;51.796;13.006;2023-02-01T12:37:28;5.40;99.90
28863;DHT22;15994;51.796;13.006;2023-02-01T12:42:32;5.20;99.90
28863;DHT22;15994;51.796;13.006;2023-02-01T12:45:36;5.20;99.90
28863;DHT22;15994;51.796;13.006;2023-02-01T12:48:25;5.20;99.90
28863;DHT22;15994;51.796;13.006;2023-02-01T12:50:56;5.00;99.90
28863;DHT22;15994;51.796;13.006;2023-02-01T12:55:57;4.90;99.90
28863;DHT22;15994;51.796;13.006;2023-02-01T12:58:38;4.90;99.90
28863;DHT22;15994;51.796;13.006;2023-02-01T13:01:19;4.90;99.90
28863;DHT22;15994;51.796;13.006;2023-02-01T13:04:11;4.90;99.90
28863;DHT22;15994;51.796;13.006;2023-02-01T13:06:47;5.00;99.90
28863;DHT22;15994;51.796;13.006;2023-02-01T13:09:28;5.20;99.90
28863;DHT22;15994;51.796;13.006;2023-02-01T13:12:08;5.30;99.90
28863;DHT22;15994;51.796;13.006;2023-02-01T13:14:54;5.40;99.90
28863;DHT22;15994;51.796;13.006;2023-02-01T13:17:23;5.50;99.90
28863;DHT22;15994;51.796;13.006;2023-02-01T13:20:03;5.60;99.90
28863;DHT22;15994;51.796;13.006;2023-02-01T13:22:37;5.70;99.90
28863;DHT22;15994;51.796;13.006;2023-02-01T13:25:22;5.90;99.90
28863;DHT22;15994;51.796;13.006;2023-02-01T13:27:54;6.10;99.90
28863;DHT22;15994;51.796;13.006;2023-02-01T13:30:30;6.20;99.90
28863;DHT22;15994;51.796;13.006;2023-02-01T13:33:21;6.30;99.90
28863;DHT22;15994;51.796;13.006;2023-02-01T13:36:08;6.40;99.90
28863;DHT22;15994;51.796;13.006;2023-02-01T13:41:50;6.60;99.90
28863;DHT22;15994;51.796;13.006;2023-02-01T13:46:57;6.80;99.90
28863;DHT22;15994;51.796;13.006;2023-02-01T13:49:31;6.80;99.90
28863;DHT22;15994;51.796;13.006;2023-02-01T13:51:58;6.80;99.90
28863;DHT22;15994;51.796;13.006;2023-02-01T13:54:33;6.80;99.90
28863;DHT22;15994;51.796;13.006;2023-02-01T13:57:01;6.80;99.90
28863;DHT22;15994;51.796;13.006;2023-02-01T14:05:11;6.90;99.90
28863;DHT22;15994;51.796;13.006;2023-02-01T14:13:40;6.90;99.90
28863;DHT22;15994;51.796;13.006;2023-02-01T14:16:13;6.80;99.90
28863;DHT22;15994;51.796;13.006;2023-02-01T14:21:32;6.80;99.90
28863;DHT22;15994;51.796;13.006;2023-02-01T14:26:44;6.70;99.90
28863;DHT22;15994;51.796;13.006;2023-02-01T14:32:22;6.60;99.90
28863;DHT22;15994;51.796;13.006;2023-02-01T14:34:53;6.60;99.90
28863;DHT22;15994;51.796;13.006;2023-02-01T14:39:59;6.60;99.90
28863;DHT22;15994;51.796;13.006;2023-02-01T14:53:13;6.40;99.90
28863;DHT22;15994;51.796;13.006;2023-02-01T15:08:59;6.10;99.90
28863;DHT22;15994;51.796;13.006;2023-02-01T15:11:26;6.10;99.90
28863;DHT22;15994;51.796;13.006;2023-02-01T15:13:53;6.10;99.90
28863;DHT22;15994;51.796;13.006;2023-02-01T15:16:24;6.00;99.90
28863;DHT22;15994;51.796;13.006;2023-02-01T15:19:04;5.90;99.90
28863;DHT22;15994;51.796;13.006;2023-02-01T15:21:45;5.90;99.90
28863;DHT22;15994;51.796;13.006;2023-02-01T15:24:17;5.90;99.90
28863;DHT22;15994;51.796;13.006;2023-02-01T15:26:44;5.90;99.90
28863;DHT22;15994;51.796;13.006;2023-02-01T15:29:12;5.90;99.90
28863;DHT22;15994;51.796;13.006;2023-02-01T15:31:45;5.90;99.90
28863;DHT22;15994;51.796;13.006;2023-02-01T15:34:12;5.90;99.90
28863;DHT22;15994;51.796;13.006;2023-02-01T15:36:40;5.80;99.90
28863;DHT22;15994;51.796;13.006;2023-02-01T15:39:24;5.80;99.90
28863;DHT22;15994;51.796;13.006;2023-02-01T15:42:00;5.60;99.90
28863;DHT22;15994;51.796;13.006;2023-02-01T15:44:38;5.50;99.90
28863;DHT22;15994;51.796;13.006;2023-02-01T15:47:13;5.40;99.90
28863;DHT22;15994;51.796;13.006;2023-02-01T15:49:41;5.40;99.90
28863;DHT22;15994;51.796;13.006;2023-02-01T15:52:25;5.20;99.90
28863;DHT22;15994;51.796;13.006;2023-02-01T15:54:56;5.10;99.90
28863;DHT22;15994;51.796;13.006;2023-02-01T15:57:32;5.00;99.90
28863;DHT22;15994;51.796;13.006;2023-02-01T16:00:08;5.00;99.90
28863;DHT22;15994;51.796;13.006;2023-02-01T16:05:40;5.00;99.90
28863;DHT22;15994;51.796;13.006;2023-02-01T16:08:20;5.00;99.90
28863;DHT22;15994;51.796;13.006;2023-02-01T16:10:49;5.00;99.90
28863;DHT22;15994;51.796;13.006;2023-02-01T16:13:17;4.90;99.90
28863;DHT22;15994;51.796;13.006;2023-02-01T16:15:45;4.90;99.90
28863;DHT22;15994;51.796;13.006;2023-02-01T16:18:13;4.90;99.90
28863;DHT22;15994;51.796;13.006;2023-02-01T16:20:41;5.00;99.90
28863;DHT22;15994;51.796;13.006;2023-02-01T16:23:09;5.00;99.90
28863;DHT22;15994;51.796;13.006;2023-02-01T16:25:37;5.00;99.90
28863;DHT22;15994;51.796;13.006;2023-02-01T16:28:04;5.00;99.90
28863;DHT22;15994;51.796;13.006;2023-02-01T16:30:31;5.00;99.90
28863;DHT22;15994;51.796;13.006;2023-02-01T16:33:01;5.00;99.90
28863;DHT22;15994;51.796;13.006;2023-02-01T16:35:35;4.90;99.90
28863;DHT22;15994;51.796;13.006;2023-02-01T16:38:03;4.90;99.90
28863;DHT22;15994;51.796;13.006;2023-02-01T16:40:34;4.90;99.90
28863;DHT22;15994;51.796;13.006;2023-02-01T16:43:01;4.90;99.90
28863;DHT22;15994;51.796;13.006;2023-02-01T16:45:28;4.80;99.90
28863;DHT22;15994;51.796;13.006;2023-02-01T16:47:57;4.80;99.90
28863;DHT22;15994;51.796;13.006;2023-02-01T16:50:25;4.80;99.90
28863;DHT22;15994;51.796;13.006;2023-02-01T16:52:52;4.80;99.90
28863;DHT22;15994;51.796;13.006;2023-02-01T16:55:20;4.70;99.90
28863;DHT22;15994;51.796;13.006;2023-02-01T16:57:48;4.70;99.90
28863;DHT22;15994;51.796;13.006;2023-02-01T17:00:15;4.70;99.90
28863;DHT22;15994;51.796;13.006;2023-02-01T17:02:41;4.70;99.90
28863;DHT22;15994;51.796;13.006;2023-02-01T17:05:09;4.60;99.90
28863;DHT22;15994;51.796;13.006;2023-02-01T17:07:37;4.60;99.90
28863;DHT22;15994;51.796;13.006;2023-02-01T17:10:05;4.60;99.90
28863;DHT22;15994;51.796;13.006;2023-02-01T17:12:32;4.60;99.90
28863;DHT22;15994;51.796;13.006;2023-02-01T17:14:59;4.40;99.90
28863;DHT22;15994;51.796;13.006;2023-02-01T17:17:36;4.30;99.90
28863;DHT22;15994;51.796;13.006;2023-02-01T17:20:05;4.30;99.90
28863;DHT22;15994;51.796;13.006;2023-02-01T17:22:32;4.20;99.90
28863;DHT22;15994;51.796;13.006;2023-02-01T17:24:59;4.20;99.90
28863;DHT22;15994;51.796;13.006;2023-02-01T17:27:25;4.00;99.90
28863;DHT22;15994;51.796;13.006;2023-02-01T17:29:54;4.00;99.90
28863;DHT22;15994;51.796;13.006;2023-02-01T17:32:23;3.90;99.90
28863;DHT22;15994;51.796;13.006;2023-02-01T17:34:51;3.80;99.90
28863;DHT22;15994;51.796;13.006;2023-02-01T17:37:29;3.80;99.90
28863;DHT22;15994;51.796;13.006;2023-02-01T17:39:56;3.80;99.90
28863;DHT22;15994;51.796;13.006;2023-02-01T17:42:24;3.80;99.90
28863;DHT22;15994;51.796;13.006;2023-02-01T17:44:55;3.90;99.90
28863;DHT22;15994;51.796;13.006;2023-02-01T17:47:22;3.90;99.90
28863;DHT22;15994;51.796;13.006;2023-02-01T17:49:49;3.90;99.90
28863;DHT22;15994;51.796;13.006;2023-02-01T17:52:22;4.00;99.90
28863;DHT22;15994;51.796;13.006;2023-02-01T17:54:49;3.90;99.90
28863;DHT22;15994;51.796;13.006;2023-02-01T17:57:18;3.90;99.90
28863;DHT22;15994;51.796;13.006;2023-02-01T17:59:45;3.90;99.90
28863;DHT22;15994;51.796;13.006;2023-02-01T18:02:23;3.80;99.90
28863;DHT22;15994;51.796;13.006;2023-02-01T18:04:50;3.80;99.90